createdAt,value
2023-02-03T00:01:47.261Z,102373.19
2023-02-03T00:04:16.118Z,102365.81
2023-02-03T00:06:45.034Z,102366.94
2023-02-03T00:09:14.529Z,102365.09
2023-02-03T00:11:43.005Z,102363.69
2023-02-03T00:14:11.520Z,102358.19
2023-02-03T00:16:39.987Z,102369.66
2023-02-03T00:19:09.446Z,102363.38
2023-02-03T00:21:37.906Z,102355.88
2023-02-03T00:24:06.495Z,102367.81
2023-02-03T00:26:34.951Z,102368.50
2023-02-03T00:29:03.312Z,102379.88
2023-02-03T00:31:31.749Z,102383.06
2023-02-03T00:34:00.156Z,102378.81
2023-02-03T00:36:28.622Z,102369.63
2023-02-03T00:38:57.059Z,102380.09
2023-02-03T00:41:29.337Z,102389.41
2023-02-03T00:43:58.171Z,102385.59
2023-02-03T00:46:26.594Z,102390.59
2023-02-03T00:48:55.003Z,102386.66
2023-02-03T00:51:23.488Z,102388.78
2023-02-03T00:53:51.920Z,102381.00
2023-02-03T00:56:20.472Z,102387.31
2023-02-03T00:58:49.046Z,102391.75
2023-02-03T01:01:17.564Z,102383.09
2023-02-03T01:03:46.130Z,102402.00
2023-02-03T01:06:20.382Z,102397.84
2023-02-03T01:08:49.469Z,102405.81
2023-02-03T01:11:21.076Z,102408.25
2023-02-03T01:13:51.195Z,102406.44
2023-02-03T01:16:21.624Z,102403.75
2023-02-03T01:18:50.993Z,102412.63
2023-02-03T01:21:22.344Z,102412.44
2023-02-03T01:23:51.689Z,102411.28
2023-02-03T01:26:23.261Z,102413.22
2023-02-03T01:28:56.849Z,102406.22
2023-02-03T01:31:37.145Z,102409.06
2023-02-03T01:34:07.334Z,102403.50
2023-02-03T01:36:36.000Z,102387.13
2023-02-03T01:39:05.991Z,102395.03
2023-02-03T01:41:38.121Z,102407.34
2023-02-03T01:44:40.570Z,102402.06
2023-02-03T01:47:15.262Z,102404.38
2023-02-03T01:49:57.494Z,102396.84
2023-02-03T01:52:27.644Z,102383.03
2023-02-03T01:54:59.150Z,102372.91
2023-02-03T01:57:34.927Z,102381.25
2023-02-03T02:00:06.946Z,102390.75
2023-02-03T02:02:36.198Z,102391.34
2023-02-03T02:05:14.469Z,102383.81
2023-02-03T02:07:43.842Z,102370.16
2023-02-03T02:10:12.517Z,102362.91
2023-02-03T02:12:40.909Z,102356.03
2023-02-03T02:15:10.165Z,102339.63
2023-02-03T02:17:44.385Z,102332.63
2023-02-03T02:20:13.915Z,102344.22
2023-02-03T02:22:54.835Z,102347.41
2023-02-03T02:25:55.859Z,102357.16
2023-02-03T02:28:46.272Z,102372.66
2023-02-03T02:31:35.948Z,102360.91
2023-02-03T02:34:22.491Z,102361.00
2023-02-03T02:37:15.950Z,102357.84
2023-02-03T02:39:53.947Z,102358.44
2023-02-03T02:42:38.469Z,102365.34
2023-02-03T02:45:15.069Z,102368.06
2023-02-03T02:47:44.622Z,102368.63
2023-02-03T02:50:17.216Z,102383.63
2023-02-03T02:52:48.767Z,102382.84
2023-02-03T02:55:26.865Z,102377.47
2023-02-03T02:58:00.842Z,102359.72
2023-02-03T03:00:34.951Z,102352.91
2023-02-03T03:03:17.273Z,102355.47
2023-02-03T03:05:56.307Z,102356.88
2023-02-03T03:08:38.076Z,102365.97
2023-02-03T03:11:07.239Z,102356.28
2023-02-03T03:13:41.201Z,102355.88
2023-02-03T03:16:11.601Z,102374.28
2023-02-03T03:18:45.689Z,102371.44
2023-02-03T03:21:20.179Z,102375.09
2023-02-03T03:23:52.151Z,102376.34
2023-02-03T03:26:35.575Z,102367.41
2023-02-03T03:29:29.460Z,102358.78
2023-02-03T03:31:58.574Z,102358.56
2023-02-03T03:34:28.081Z,102359.34
2023-02-03T03:37:31.646Z,102351.44
2023-02-03T03:40:08.507Z,102341.81
2023-02-03T03:42:54.603Z,102353.94
2023-02-03T03:45:25.849Z,102346.28
2023-02-03T03:47:56.989Z,102347.41
2023-02-03T03:50:29.502Z,102340.56
2023-02-03T03:53:00.403Z,102326.13
2023-02-03T03:55:32.315Z,102337.75
2023-02-03T03:58:08.041Z,102329.88
2023-02-03T04:00:39.784Z,102340.28
2023-02-03T04:03:17.892Z,102345.88
2023-02-03T04:05:46.442Z,102356.13
2023-02-03T04:08:14.917Z,102353.06
2023-02-03T04:10:44.220Z,102341.97
2023-02-03T04:13:13.079Z,102353.19
2023-02-03T04:15:41.802Z,102356.81
2023-02-03T04:18:13.568Z,102363.38
2023-02-03T04:20:42.684Z,102361.47
2023-02-03T04:23:11.117Z,102342.69
2023-02-03T04:25:39.459Z,102346.81
2023-02-03T04:28:08.124Z,102351.22
2023-02-03T04:30:36.658Z,102360.53
2023-02-03T04:33:05.017Z,102365.88
2023-02-03T04:35:33.376Z,102362.03
2023-02-03T04:38:01.912Z,102365.91
2023-02-03T04:40:30.494Z,102378.13
2023-02-03T04:42:59.056Z,102370.22
2023-02-03T04:45:27.677Z,102357.31
2023-02-03T04:47:56.168Z,102379.97
2023-02-03T04:50:24.661Z,102387.63
2023-02-03T04:52:53.065Z,102378.09
2023-02-03T04:55:21.493Z,102355.88
2023-02-03T04:57:55.469Z,102375.47
2023-02-03T05:00:24.233Z,102358.72
2023-02-03T05:02:52.779Z,102354.00
2023-02-03T05:05:21.634Z,102362.41
2023-02-03T05:07:50.048Z,102353.50
2023-02-03T05:10:18.442Z,102341.72
2023-02-03T05:12:46.884Z,102338.31
2023-02-03T05:15:15.489Z,102350.09
2023-02-03T05:17:43.927Z,102351.59
2023-02-03T05:20:12.570Z,102343.88
2023-02-03T05:22:41.092Z,102347.81
2023-02-03T05:25:09.940Z,102347.00
2023-02-03T05:27:39.429Z,102357.69
2023-02-03T05:30:09.719Z,102360.50
2023-02-03T05:32:38.161Z,102362.44
2023-02-03T05:35:07.056Z,102365.53
2023-02-03T05:37:35.591Z,102380.72
2023-02-03T05:40:36.690Z,102373.28
2023-02-03T05:43:05.253Z,102392.59
2023-02-03T05:45:33.719Z,102389.50
2023-02-03T05:48:05.404Z,102392.47
2023-02-03T05:50:36.243Z,102396.38
2023-02-03T05:53:07.570Z,102377.09
2023-02-03T05:55:36.169Z,102385.34
2023-02-03T05:58:05.205Z,102380.25
2023-02-03T06:00:33.672Z,102372.25
2023-02-03T06:03:02.788Z,102383.44
2023-02-03T06:05:33.790Z,102377.50
2023-02-03T06:08:02.178Z,102375.38
2023-02-03T06:10:30.596Z,102372.69
2023-02-03T06:12:59.086Z,102375.09
2023-02-03T06:15:27.569Z,102393.78
2023-02-03T06:17:55.931Z,102384.66
2023-02-03T06:20:24.291Z,102386.00
2023-02-03T06:22:52.683Z,102379.88
2023-02-03T06:25:21.055Z,102381.44
2023-02-03T06:27:50.302Z,102382.38
2023-02-03T06:30:20.370Z,102378.22
2023-02-03T06:32:48.840Z,102389.41
2023-02-03T06:35:18.201Z,102390.13
2023-02-03T06:37:46.750Z,102389.06
2023-02-03T06:40:15.234Z,102378.78
2023-02-03T06:42:47.561Z,102359.09
2023-02-03T06:45:16.205Z,102369.47
2023-02-03T06:47:45.691Z,102368.91
2023-02-03T06:50:15.383Z,102381.59
2023-02-03T06:52:44.092Z,102380.25
2023-02-03T06:55:12.577Z,102373.88
2023-02-03T06:57:45.658Z,102375.97
2023-02-03T07:00:18.829Z,102373.25
2023-02-03T07:02:54.102Z,102361.06
2023-02-03T07:05:23.859Z,102355.47
2023-02-03T07:07:52.565Z,102351.44
2023-02-03T07:10:21.485Z,102368.56
2023-02-03T07:12:50.917Z,102373.78
2023-02-03T07:15:19.338Z,102378.41
2023-02-03T07:17:54.323Z,102396.38
2023-02-03T07:20:24.631Z,102402.75
2023-02-03T07:22:57.553Z,102403.66
2023-02-03T07:25:26.169Z,102416.94
2023-02-03T07:27:54.955Z,102399.25
2023-02-03T07:30:23.650Z,102408.78
2023-02-03T07:32:53.244Z,102415.44
2023-02-03T07:35:22.023Z,102415.44
2023-02-03T07:37:50.520Z,102409.69
2023-02-03T07:40:20.115Z,102407.00
2023-02-03T07:42:49.742Z,102412.97
2023-02-03T07:45:18.860Z,102405.19
2023-02-03T07:47:47.404Z,102400.50
2023-02-03T07:50:15.935Z,102407.22
2023-02-03T07:52:44.423Z,102410.69
2023-02-03T07:55:12.897Z,102419.16
2023-02-03T07:57:43.484Z,102413.59
2023-02-03T08:00:14.577Z,102404.19
2023-02-03T08:02:43.839Z,102408.16
2023-02-03T08:05:13.249Z,102421.44
2023-02-03T08:07:42.616Z,102426.53
2023-02-03T08:10:13.250Z,102425.97
2023-02-03T08:12:46.536Z,102415.13
2023-02-03T08:15:15.031Z,102428.94
2023-02-03T08:17:44.617Z,102427.69
2023-02-03T08:20:13.143Z,102427.50
2023-02-03T08:22:41.688Z,102442.09
2023-02-03T08:25:11.015Z,102460.25
2023-02-03T08:27:40.248Z,102463.03
2023-02-03T08:30:12.857Z,102452.25
2023-02-03T08:32:41.526Z,102452.28
2023-02-03T08:35:10.051Z,102439.66
2023-02-03T08:37:38.730Z,102456.44
2023-02-03T08:40:08.503Z,102448.69
2023-02-03T08:42:37.166Z,102450.03
2023-02-03T08:45:06.114Z,102464.94
2023-02-03T08:47:36.828Z,102473.75
2023-02-03T08:50:07.677Z,102490.25
2023-02-03T08:52:36.165Z,102501.97
2023-02-03T08:55:05.020Z,102491.53
2023-02-03T08:57:35.950Z,102487.53
2023-02-03T09:00:06.212Z,102491.53
2023-02-03T09:02:34.958Z,102493.97
2023-02-03T09:05:03.605Z,102488.38
2023-02-03T09:07:32.082Z,102469.69
2023-02-03T09:10:00.501Z,102471.50
2023-02-03T09:12:28.923Z,102468.06
2023-02-03T09:14:57.371Z,102463.22
2023-02-03T09:17:25.890Z,102485.63
2023-02-03T09:19:54.341Z,102477.78
2023-02-03T09:22:22.750Z,102471.69
2023-02-03T09:24:51.403Z,102475.38
2023-02-03T09:27:19.927Z,102496.22
2023-02-03T09:29:48.358Z,102485.75
2023-02-03T09:32:16.855Z,102483.53
2023-02-03T09:34:45.352Z,102481.22
2023-02-03T09:37:13.936Z,102488.44
2023-02-03T09:39:42.343Z,102492.81
2023-02-03T09:42:55.634Z,102505.31
2023-02-03T09:45:28.213Z,102507.06
2023-02-03T09:48:10.092Z,102514.53
2023-02-03T09:50:41.460Z,102508.47
2023-02-03T09:53:28.808Z,102504.47
2023-02-03T09:55:59.051Z,102504.13
2023-02-03T09:58:32.812Z,102515.72
2023-02-03T10:01:05.635Z,102528.59
2023-02-03T10:03:43.711Z,102527.91
2023-02-03T10:06:36.148Z,102523.56
2023-02-03T10:09:26.235Z,102513.91
2023-02-03T10:12:25.479Z,102526.66
2023-02-03T10:15:21.458Z,102523.41
2023-02-03T10:17:57.724Z,102512.38
2023-02-03T10:20:36.339Z,102490.91
2023-02-03T10:23:11.856Z,102494.72
2023-02-03T10:25:44.206Z,102510.19
2023-02-03T10:28:24.490Z,102528.25
2023-02-03T10:30:58.068Z,102507.50
2023-02-03T10:33:28.463Z,102511.56
2023-02-03T10:36:19.491Z,102514.50
2023-02-03T10:39:03.847Z,102493.38
2023-02-03T10:41:33.315Z,102494.97
2023-02-03T10:44:06.417Z,102498.97
2023-02-03T10:46:37.982Z,102498.41
2023-02-03T10:49:06.436Z,102495.56
2023-02-03T10:51:40.184Z,102509.88
2023-02-03T10:54:33.324Z,102505.53
2023-02-03T10:57:11.504Z,102515.78
2023-02-03T10:59:46.104Z,102513.56
2023-02-03T11:02:27.112Z,102507.81
2023-02-03T11:05:18.254Z,102508.72
2023-02-03T11:07:47.372Z,102513.16
2023-02-03T11:10:40.599Z,102513.72
2023-02-03T11:13:19.657Z,102520.69
2023-02-03T11:16:12.622Z,102523.56
2023-02-03T11:18:52.046Z,102518.00
2023-02-03T11:21:20.400Z,102518.66
2023-02-03T11:23:54.811Z,102509.84
2023-02-03T11:26:37.250Z,102529.91
2023-02-03T11:29:08.319Z,102528.44
2023-02-03T11:31:37.815Z,102528.31
2023-02-03T11:34:24.215Z,102525.97
2023-02-03T11:36:52.760Z,102515.91
2023-02-03T11:39:28.712Z,102521.78
2023-02-03T11:41:57.419Z,102504.28
2023-02-03T11:44:31.115Z,102522.03
2023-02-03T11:47:08.800Z,102509.19
2023-02-03T11:50:02.266Z,102510.25
2023-02-03T11:52:47.358Z,102527.66
2023-02-03T11:55:37.361Z,102508.72
2023-02-03T11:58:14.806Z,102520.75
2023-02-03T12:01:13.715Z,102527.91
2023-02-03T12:04:00.663Z,102530.00
2023-02-03T12:06:43.358Z,102523.28
2023-02-03T12:09:29.694Z,102523.06
2023-02-03T12:12:15.135Z,102518.88
2023-02-03T12:14:59.955Z,102522.06
2023-02-03T12:17:54.156Z,102520.63
2023-02-03T12:20:37.944Z,102524.22
2023-02-03T12:23:30.586Z,102532.56
2023-02-03T12:26:01.791Z,102522.22
2023-02-03T12:28:59.116Z,102516.81
2023-02-03T12:31:47.690Z,102518.19
2023-02-03T12:34:27.944Z,102520.19
2023-02-03T12:37:06.612Z,102524.81
2023-02-03T12:39:52.441Z,102522.84
2023-02-03T12:42:27.703Z,102522.63
2023-02-03T12:45:06.083Z,102526.19
2023-02-03T12:47:44.038Z,102534.03
2023-02-03T12:50:31.344Z,102545.50
2023-02-03T12:53:16.522Z,102549.84
2023-02-03T12:56:27.058Z,102557.88
2023-02-03T12:59:13.970Z,102547.22
2023-02-03T13:01:50.021Z,102548.31
2023-02-03T13:04:45.126Z,102552.94
2023-02-03T13:07:40.602Z,102554.03
2023-02-03T13:10:24.554Z,102550.59
2023-02-03T13:12:59.277Z,102553.47
2023-02-03T13:15:32.650Z,102540.78
2023-02-03T13:18:11.003Z,102553.47
2023-02-03T13:20:39.488Z,102552.28
2023-02-03T13:23:13.192Z,102547.41
2023-02-03T13:26:11.069Z,102560.44
2023-02-03T13:29:18.807Z,102554.84
2023-02-03T13:31:47.295Z,102569.88
2023-02-03T13:34:18.656Z,102568.50
2023-02-03T13:36:59.224Z,102568.53
2023-02-03T13:39:43.311Z,102559.16
2023-02-03T13:42:26.845Z,102568.50
2023-02-03T13:45:26.428Z,102552.50
2023-02-03T13:48:09.284Z,102555.59
2023-02-03T13:50:38.973Z,102566.75
2023-02-03T13:53:20.818Z,102567.44
2023-02-03T13:56:02.153Z,102572.94
2023-02-03T13:58:37.698Z,102566.22
2023-02-03T14:01:33.891Z,102562.19
2023-02-03T14:04:05.809Z,102570.38
2023-02-03T14:06:40.433Z,102578.00
2023-02-03T14:09:34.621Z,102583.53
2023-02-03T14:12:15.292Z,102582.59
2023-02-03T14:15:04.835Z,102574.78
2023-02-03T14:17:36.410Z,102577.69
2023-02-03T14:20:27.504Z,102582.13
2023-02-03T14:22:59.795Z,102570.16
2023-02-03T14:25:28.761Z,102576.75
2023-02-03T14:28:11.155Z,102565.25
2023-02-03T14:31:03.314Z,102566.22
2023-02-03T14:33:55.523Z,102565.28
2023-02-03T14:36:41.427Z,102570.78
2023-02-03T14:39:22.483Z,102568.56
2023-02-03T14:42:34.682Z,102571.06
2023-02-03T14:45:40.672Z,102581.59
2023-02-03T14:48:38.836Z,102570.53
2023-02-03T14:51:46.044Z,102576.19
2023-02-03T14:54:40.290Z,102590.50
2023-02-03T14:57:33.638Z,102578.00
2023-02-03T15:00:05.566Z,102586.59
2023-02-03T15:02:34.839Z,102592.72
2023-02-03T15:05:12.187Z,102590.56
2023-02-03T15:07:49.460Z,102602.63
2023-02-03T15:10:40.640Z,102595.50
2023-02-03T15:13:28.497Z,102589.28
2023-02-03T15:16:05.056Z,102608.44
2023-02-03T15:18:36.610Z,102610.16
2023-02-03T15:21:05.558Z,102620.09
2023-02-03T15:23:43.079Z,102607.50
2023-02-03T15:26:26.148Z,102607.50
2023-02-03T15:29:00.252Z,102610.16
2023-02-03T15:31:40.144Z,102611.06
2023-02-03T15:34:39.411Z,102612.41
2023-02-03T15:37:15.086Z,102615.06
2023-02-03T15:39:46.920Z,102616.34
2023-02-03T15:42:29.523Z,102623.91
2023-02-03T15:45:04.904Z,102628.69
2023-02-03T15:47:47.952Z,102626.66
2023-02-03T15:50:34.159Z,102635.75
2023-02-03T15:53:15.241Z,102634.81
2023-02-03T15:55:47.800Z,102641.00
2023-02-03T15:58:20.248Z,102646.22
2023-02-03T16:00:52.986Z,102650.56
2023-02-03T16:03:27.501Z,102653.66
2023-02-03T16:05:56.032Z,102659.97
2023-02-03T16:08:46.136Z,102662.78
2023-02-03T16:11:35.533Z,102656.69
2023-02-03T16:14:32.471Z,102665.41
2023-02-03T16:17:05.553Z,102674.13
2023-02-03T16:19:38.008Z,102687.66
2023-02-03T16:22:28.762Z,102687.03
2023-02-03T16:24:57.816Z,102686.34
2023-02-03T16:27:26.305Z,102694.53
2023-02-03T16:30:33.004Z,102703.06
2023-02-03T16:33:40.615Z,102708.13
2023-02-03T16:36:32.595Z,102705.78
2023-02-03T16:39:21.478Z,102710.06
2023-02-03T16:42:08.459Z,102699.94
2023-02-03T16:44:55.130Z,102715.06
2023-02-03T16:47:48.576Z,102704.38
2023-02-03T16:50:41.656Z,102716.75
2023-02-03T16:53:14.460Z,102712.03
2023-02-03T16:55:43.877Z,102720.00
2023-02-03T16:58:12.724Z,102723.28
2023-02-03T17:00:42.819Z,102724.59
2023-02-03T17:03:14.207Z,102738.81
2023-02-03T17:05:44.963Z,102734.91
2023-02-03T17:08:14.637Z,102731.59
2023-02-03T17:10:44.723Z,102726.50
2023-02-03T17:13:13.254Z,102719.81
2023-02-03T17:15:44.589Z,102732.00
2023-02-03T17:18:17.564Z,102729.44
2023-02-03T17:20:47.069Z,102737.41
2023-02-03T17:23:16.531Z,102738.31
2023-02-03T17:25:47.186Z,102743.31
2023-02-03T17:28:16.550Z,102742.81
2023-02-03T17:30:45.339Z,102751.66
2023-02-03T17:33:13.923Z,102758.94
2023-02-03T17:35:44.692Z,102748.06
2023-02-03T17:38:16.928Z,102755.19
2023-02-03T17:54:39.865Z,102799.84
2023-02-03T17:57:08.350Z,102796.72
2023-02-03T17:59:37.739Z,102802.13
2023-02-03T18:02:06.316Z,102795.47
2023-02-03T18:04:35.204Z,102803.19
2023-02-03T18:07:03.762Z,102797.56
2023-02-03T18:09:32.292Z,102811.19
2023-02-03T18:12:01.836Z,102808.25
2023-02-03T18:14:30.227Z,102801.19
2023-02-03T18:16:58.837Z,102809.13
2023-02-03T18:19:27.413Z,102813.88
2023-02-03T18:21:55.967Z,102818.53
2023-02-03T18:24:27.877Z,102822.75
2023-02-03T18:26:56.932Z,102824.22
2023-02-03T18:29:27.315Z,102836.28
2023-02-03T18:31:55.786Z,102834.13
2023-02-03T18:34:25.013Z,102837.16
2023-02-03T18:36:53.495Z,102849.06
2023-02-03T18:39:21.992Z,102854.41
2023-02-03T18:41:50.420Z,102862.59
2023-02-03T18:44:18.899Z,102869.38
2023-02-03T18:46:47.367Z,102861.09
2023-02-03T18:49:15.801Z,102857.91
2023-02-03T18:51:44.176Z,102855.72
2023-02-03T18:54:13.019Z,102863.06
2023-02-03T18:56:41.512Z,102864.84
2023-02-03T18:59:11.196Z,102869.88
2023-02-03T19:01:39.782Z,102875.88
2023-02-03T19:04:09.401Z,102869.16
2023-02-03T19:06:45.206Z,102866.00
2023-02-03T19:09:16.154Z,102874.28
2023-02-03T19:11:44.975Z,102878.25
2023-02-03T19:14:14.630Z,102866.06
2023-02-03T19:16:43.656Z,102879.31
2023-02-03T19:19:14.347Z,102878.25
2023-02-03T19:21:42.777Z,102886.41
2023-02-03T19:24:15.908Z,102892.03
2023-02-03T19:26:44.422Z,102900.53
2023-02-03T19:29:12.919Z,102899.78
2023-02-03T19:31:41.578Z,102906.97
2023-02-03T19:34:15.318Z,102901.19
2023-02-03T19:36:43.984Z,102917.06
2023-02-03T19:39:13.506Z,102915.22
2023-02-03T19:41:42.061Z,102925.06
2023-02-03T19:44:10.642Z,102926.03
2023-02-03T19:46:39.176Z,102918.69
2023-02-03T19:49:13.020Z,102921.94
2023-02-03T19:51:43.144Z,102928.97
2023-02-03T19:54:13.206Z,102922.06
2023-02-03T19:56:43.025Z,102925.94
2023-02-03T19:59:11.580Z,102918.09
2023-02-03T20:01:40.087Z,102913.69
2023-02-03T20:04:08.652Z,102911.75
2023-02-03T20:06:37.218Z,102915.16
2023-02-03T20:09:06.549Z,102918.69
2023-02-03T20:11:34.940Z,102921.88
2023-02-03T20:14:04.844Z,102928.81
2023-02-03T20:16:33.401Z,102934.19
2023-02-03T20:19:04.058Z,102945.75
2023-02-03T20:21:32.621Z,102949.25
2023-02-03T20:24:01.110Z,102950.22
2023-02-03T20:26:29.548Z,102947.78
2023-02-03T20:28:57.978Z,102949.75
2023-02-03T20:31:26.465Z,102956.44
2023-02-03T20:33:54.863Z,102961.25
2023-02-03T20:36:23.529Z,102957.94
2023-02-03T20:38:51.980Z,102972.19
2023-02-03T20:41:21.319Z,102972.16
2023-02-03T20:43:49.772Z,102972.50
2023-02-03T20:46:19.289Z,102975.84
2023-02-03T20:48:48.386Z,102970.59
2023-02-03T20:51:18.330Z,102974.03
2023-02-03T20:53:47.986Z,102970.88
2023-02-03T20:56:18.823Z,102979.47
2023-02-03T20:58:47.357Z,102970.44
2023-02-03T21:01:18.724Z,102972.81
2023-02-03T21:04:20.090Z,102974.38
2023-02-03T21:06:48.573Z,102981.34
2023-02-03T21:09:20.870Z,102990.53
2023-02-03T21:11:52.092Z,102981.47
2023-02-03T21:14:27.207Z,102987.31
2023-02-03T21:16:55.699Z,102985.78
2023-02-03T21:19:33.020Z,102988.31
2023-02-03T21:22:17.147Z,102983.91
2023-02-03T21:24:57.197Z,102996.38
2023-02-03T21:27:29.462Z,103000.50
2023-02-03T21:29:58.852Z,103010.88
2023-02-03T21:32:40.853Z,102996.63
2023-02-03T21:35:33.930Z,102994.34
2023-02-03T21:38:19.400Z,103007.66
2023-02-03T21:40:47.841Z,103010.13
2023-02-03T21:43:17.997Z,103005.09
2023-02-03T21:45:46.544Z,103018.75
2023-02-03T21:48:28.991Z,103019.00
2023-02-03T21:51:00.310Z,103014.84
2023-02-03T21:53:35.913Z,103002.44
2023-02-03T21:56:26.973Z,103014.19
2023-02-03T21:59:00.265Z,103009.56
2023-02-03T22:01:36.492Z,103008.69
2023-02-03T22:04:06.576Z,103014.53
2023-02-03T22:06:53.758Z,103015.41
2023-02-03T22:09:26.793Z,103018.88
2023-02-03T22:11:55.228Z,103017.16
2023-02-03T22:14:23.713Z,103021.78
2023-02-03T22:16:52.311Z,103014.84
2023-02-03T22:19:20.809Z,103013.19
2023-02-03T22:21:50.844Z,103037.38
2023-02-03T22:24:19.280Z,103024.25
2023-02-03T22:26:47.683Z,103031.56
2023-02-03T22:29:16.103Z,103038.47
2023-02-03T22:31:44.770Z,103039.19
2023-02-03T22:34:15.406Z,103049.44
2023-02-03T22:36:43.849Z,103044.03
2023-02-03T22:39:13.289Z,103045.59
2023-02-03T22:41:41.696Z,103056.47
2023-02-03T22:44:15.861Z,103054.00
2023-02-03T22:46:44.329Z,103052.09
2023-02-03T22:49:12.707Z,103046.97
2023-02-03T22:51:41.194Z,103053.09
2023-02-03T22:54:09.628Z,103046.47
2023-02-03T22:56:37.998Z,103055.06
2023-02-03T22:59:06.420Z,103064.19
2023-02-03T23:01:34.905Z,103061.94
2023-02-03T23:04:03.430Z,103059.34
2023-02-03T23:06:31.766Z,103058.03
2023-02-03T23:09:00.185Z,103059.78
2023-02-03T23:11:28.651Z,103078.00
2023-02-03T23:13:57.076Z,103067.19
2023-02-03T23:16:25.643Z,103063.94
2023-02-03T23:18:54.018Z,103078.03
2023-02-03T23:21:22.460Z,103080.38
2023-02-03T23:23:50.926Z,103082.59
2023-02-03T23:26:19.387Z,103093.38
2023-02-03T23:28:47.733Z,103091.66
2023-02-03T23:31:16.542Z,103102.44
2023-02-03T23:34:05.033Z,103097.84
2023-02-03T23:36:33.581Z,103101.94
2023-02-03T23:39:02.056Z,103104.31
2023-02-03T23:41:30.472Z,103114.06
2023-02-03T23:44:00.760Z,103108.25
2023-02-03T23:46:29.283Z,103117.09
2023-02-03T23:48:57.705Z,103112.50
2023-02-03T23:51:26.081Z,103118.03
2023-02-03T23:53:54.448Z,103116.72
2023-02-03T23:56:22.900Z,103107.69
2023-02-03T23:58:51.343Z,103105.31
